sensor_id;sensor_type;location;lat;lon;timestamp;pressure;altitude;pressure_sealevel;temperature;humidity
6833;BME280;3454;42.654;23.378;2023-02-18T00:01:28;95139.56;;;5.96;67.08
6833;BME280;3454;42.654;23.378;2023-02-18T00:03:54;95160.19;;;6.02;65.42
6833;BME280;3454;42.654;23.378;2023-02-18T00:06:24;95158.66;;;6.00;65.99
6833;BME280;3454;42.654;23.378;2023-02-18T00:08:51;95156.94;;;5.86;66.20
6833;BME280;3454;42.654;23.378;2023-02-18T00:11:18;95136.03;;;5.84;66.57
6833;BME280;3454;42.654;23.378;2023-02-18T00:13:52;95145.59;;;5.93;65.86
6833;BME280;3454;42.654;23.378;2023-02-18T00:16:18;95132.34;;;5.89;67.02
6833;BME280;3454;42.654;23.378;2023-02-18T00:18:44;95142.50;;;6.02;65.60
6833;BME280;3454;42.654;23.378;2023-02-18T00:21:10;95153.88;;;6.23;65.30
6833;BME280;3454;42.654;23.378;2023-02-18T00:23:35;95136.72;;;6.14;65.82
6833;BME280;3454;42.654;23.378;2023-02-18T00:26:03;95149.09;;;6.19;64.99
6833;BME280;3454;42.654;23.378;2023-02-18T00:28:29;95138.03;;;6.07;65.13
6833;BME280;3454;42.654;23.378;2023-02-18T00:30:55;95118.56;;;5.95;66.38
6833;BME280;3454;42.654;23.378;2023-02-18T00:33:21;95119.63;;;5.91;66.10
6833;BME280;3454;42.654;23.378;2023-02-18T00:35:47;95096.19;;;5.75;66.84
6833;BME280;3454;42.654;23.378;2023-02-18T00:38:12;95119.09;;;5.86;66.64
6833;BME280;3454;42.654;23.378;2023-02-18T00:40:39;95094.91;;;5.82;66.97
6833;BME280;3454;42.654;23.378;2023-02-18T00:43:04;95116.19;;;5.92;66.53
6833;BME280;3454;42.654;23.378;2023-02-18T00:45:30;95074.81;;;5.80;68.60
6833;BME280;3454;42.654;23.378;2023-02-18T00:47:55;95091.69;;;5.94;67.38
6833;BME280;3454;42.654;23.378;2023-02-18T00:50:21;95102.44;;;5.98;67.85
6833;BME280;3454;42.654;23.378;2023-02-18T00:52:46;95131.53;;;6.03;65.93
6833;BME280;3454;42.654;23.378;2023-02-18T00:55:12;95108.72;;;5.90;67.58
6833;BME280;3454;42.654;23.378;2023-02-18T00:57:38;95103.94;;;5.86;68.00
6833;BME280;3454;42.654;23.378;2023-02-18T01:00:05;95084.75;;;5.55;69.57
6833;BME280;3454;42.654;23.378;2023-02-18T01:02:31;95103.22;;;5.84;67.96
6833;BME280;3454;42.654;23.378;2023-02-18T01:04:56;95102.47;;;5.68;68.98
6833;BME280;3454;42.654;23.378;2023-02-18T01:07:22;95128.81;;;5.92;67.62
6833;BME280;3454;42.654;23.378;2023-02-18T01:09:47;95110.97;;;5.81;68.91
6833;BME280;3454;42.654;23.378;2023-02-18T01:12:13;95106.63;;;5.83;69.27
6833;BME280;3454;42.654;23.378;2023-02-18T01:14:38;95126.03;;;5.97;67.55
6833;BME280;3454;42.654;23.378;2023-02-18T01:17:04;95120.84;;;5.70;67.92
6833;BME280;3454;42.654;23.378;2023-02-18T01:19:29;95121.78;;;5.69;67.50
6833;BME280;3454;42.654;23.378;2023-02-18T01:21:54;95112.91;;;5.48;68.12
6833;BME280;3454;42.654;23.378;2023-02-18T01:24:20;95095.72;;;5.54;70.20
6833;BME280;3454;42.654;23.378;2023-02-18T01:26:45;95120.31;;;5.51;68.64
6833;BME280;3454;42.654;23.378;2023-02-18T01:29:11;95111.84;;;5.52;68.75
6833;BME280;3454;42.654;23.378;2023-02-18T01:31:36;95098.34;;;5.53;69.71
6833;BME280;3454;42.654;23.378;2023-02-18T01:34:02;95122.59;;;5.69;68.02
6833;BME280;3454;42.654;23.378;2023-02-18T01:36:27;95095.09;;;5.51;69.69
6833;BME280;3454;42.654;23.378;2023-02-18T01:38:53;95103.28;;;5.54;69.58
6833;BME280;3454;42.654;23.378;2023-02-18T01:41:19;95112.56;;;5.54;69.11
6833;BME280;3454;42.654;23.378;2023-02-18T01:43:44;95113.81;;;5.47;68.58
6833;BME280;3454;42.654;23.378;2023-02-18T01:48:45;95132.56;;;5.57;68.38
6833;BME280;3454;42.654;23.378;2023-02-18T01:51:46;95131.84;;;5.69;68.84
6833;BME280;3454;42.654;23.378;2023-02-18T01:54:17;95150.59;;;5.79;67.80
6833;BME280;3454;42.654;23.378;2023-02-18T01:56:48;95145.81;;;5.74;68.82
6833;BME280;3454;42.654;23.378;2023-02-18T01:59:27;95142.56;;;5.72;69.22
6833;BME280;3454;42.654;23.378;2023-02-18T02:01:54;95153.22;;;5.77;68.16
6833;BME280;3454;42.654;23.378;2023-02-18T02:04:20;95166.94;;;5.87;67.40
6833;BME280;3454;42.654;23.378;2023-02-18T02:06:45;95174.22;;;5.92;67.06
6833;BME280;3454;42.654;23.378;2023-02-18T02:09:13;95179.38;;;5.90;66.72
6833;BME280;3454;42.654;23.378;2023-02-18T02:12:05;95174.19;;;5.78;66.40
6833;BME280;3454;42.654;23.378;2023-02-18T02:15:05;95164.44;;;5.58;66.51
6833;BME280;3454;42.654;23.378;2023-02-18T02:42:39;95146.16;;;5.68;67.76
6833;BME280;3454;42.654;23.378;2023-02-18T02:53:39;95144.06;;;5.47;67.42
6833;BME280;3454;42.654;23.378;2023-02-18T02:56:05;95107.97;;;5.46;68.83
6833;BME280;3454;42.654;23.378;2023-02-18T02:58:31;95124.97;;;5.43;67.63
6833;BME280;3454;42.654;23.378;2023-02-18T03:01:24;95136.53;;;5.61;67.68
6833;BME280;3454;42.654;23.378;2023-02-18T03:04:48;95107.75;;;4.91;69.97
6833;BME280;3454;42.654;23.378;2023-02-18T03:13:00;95130.56;;;5.62;70.08
6833;BME280;3454;42.654;23.378;2023-02-18T03:15:46;95129.88;;;5.74;68.91
6833;BME280;3454;42.654;23.378;2023-02-18T03:18:37;95154.91;;;5.77;67.72
6833;BME280;3454;42.654;23.378;2023-02-18T03:23:37;95159.56;;;5.55;68.06
6833;BME280;3454;42.654;23.378;2023-02-18T03:26:07;95108.88;;;5.45;71.42
6833;BME280;3454;42.654;23.378;2023-02-18T03:28:34;95149.84;;;5.49;69.78
6833;BME280;3454;42.654;23.378;2023-02-18T03:31:09;95164.38;;;5.59;69.62
6833;BME280;3454;42.654;23.378;2023-02-18T03:33:45;95160.78;;;5.63;69.90
6833;BME280;3454;42.654;23.378;2023-02-18T03:36:12;95166.34;;;5.68;69.85
6833;BME280;3454;42.654;23.378;2023-02-18T03:38:55;95211.69;;;5.84;68.21
6833;BME280;3454;42.654;23.378;2023-02-18T03:41:23;95201.22;;;5.76;68.61
6833;BME280;3454;42.654;23.378;2023-02-18T03:43:59;95196.84;;;5.50;68.81
6833;BME280;3454;42.654;23.378;2023-02-18T03:46:29;95209.91;;;5.56;67.77
6833;BME280;3454;42.654;23.378;2023-02-18T03:48:55;95178.38;;;5.20;69.20
6833;BME280;3454;42.654;23.378;2023-02-18T03:51:21;95163.31;;;5.04;70.83
6833;BME280;3454;42.654;23.378;2023-02-18T03:53:47;95180.41;;;5.13;70.32
6833;BME280;3454;42.654;23.378;2023-02-18T03:56:14;95201.16;;;5.18;69.27
6833;BME280;3454;42.654;23.378;2023-02-18T03:58:39;95195.63;;;5.11;69.81
6833;BME280;3454;42.654;23.378;2023-02-18T04:01:05;95174.53;;;4.98;71.18
6833;BME280;3454;42.654;23.378;2023-02-18T04:03:30;95174.19;;;5.04;70.33
6833;BME280;3454;42.654;23.378;2023-02-18T04:05:56;95156.66;;;4.87;70.95
6833;BME280;3454;42.654;23.378;2023-02-18T04:08:22;95132.00;;;4.47;72.22
6833;BME280;3454;42.654;23.378;2023-02-18T04:10:48;95103.03;;;4.24;75.04
6833;BME280;3454;42.654;23.378;2023-02-18T04:13:13;95106.38;;;4.25;74.62
6833;BME280;3454;42.654;23.378;2023-02-18T04:15:38;95101.44;;;4.23;75.16
6833;BME280;3454;42.654;23.378;2023-02-18T04:18:04;95101.00;;;4.31;74.91
6833;BME280;3454;42.654;23.378;2023-02-18T04:20:30;95117.22;;;4.57;73.61
6833;BME280;3454;42.654;23.378;2023-02-18T04:22:56;95089.31;;;4.46;75.89
6833;BME280;3454;42.654;23.378;2023-02-18T04:25:22;95065.63;;;4.34;77.73
6833;BME280;3454;42.654;23.378;2023-02-18T04:27:48;95094.19;;;4.33;76.58
6833;BME280;3454;42.654;23.378;2023-02-18T04:30:13;95087.13;;;4.40;76.47
6833;BME280;3454;42.654;23.378;2023-02-18T04:32:39;95083.63;;;4.58;76.16
6833;BME280;3454;42.654;23.378;2023-02-18T04:35:05;95127.47;;;4.54;74.17
6833;BME280;3454;42.654;23.378;2023-02-18T04:37:30;95120.91;;;4.36;74.13
6833;BME280;3454;42.654;23.378;2023-02-18T04:39:55;95124.88;;;4.24;73.54
6833;BME280;3454;42.654;23.378;2023-02-18T04:42:21;95091.44;;;4.22;75.62
6833;BME280;3454;42.654;23.378;2023-02-18T04:44:47;95064.16;;;4.14;77.92
6833;BME280;3454;42.654;23.378;2023-02-18T04:47:12;95097.63;;;4.32;76.08
6833;BME280;3454;42.654;23.378;2023-02-18T04:49:37;95120.50;;;4.43;74.58
6833;BME280;3454;42.654;23.378;2023-02-18T04:52:03;95131.38;;;4.44;74.39
6833;BME280;3454;42.654;23.378;2023-02-18T04:54:29;95134.84;;;4.57;74.79
6833;BME280;3454;42.654;23.378;2023-02-18T04:56:54;95117.72;;;4.48;75.63
6833;BME280;3454;42.654;23.378;2023-02-18T04:59:19;95104.59;;;4.27;76.71
6833;BME280;3454;42.654;23.378;2023-02-18T05:01:45;95090.00;;;4.18;77.51
6833;BME280;3454;42.654;23.378;2023-02-18T05:04:10;95124.88;;;4.24;76.08
6833;BME280;3454;42.654;23.378;2023-02-18T05:06:36;95132.25;;;4.27;75.79
6833;BME280;3454;42.654;23.378;2023-02-18T05:09:05;95171.00;;;4.56;74.52
6833;BME280;3454;42.654;23.378;2023-02-18T05:11:30;95175.38;;;4.68;73.62
6833;BME280;3454;42.654;23.378;2023-02-18T05:13:56;95166.09;;;4.53;73.91
6833;BME280;3454;42.654;23.378;2023-02-18T05:16:21;95158.97;;;4.45;74.17
6833;BME280;3454;42.654;23.378;2023-02-18T05:18:47;95143.88;;;4.30;74.87
6833;BME280;3454;42.654;23.378;2023-02-18T05:21:12;95141.44;;;4.28;74.76
6833;BME280;3454;42.654;23.378;2023-02-18T05:23:37;95140.84;;;4.23;75.26
6833;BME280;3454;42.654;23.378;2023-02-18T05:26:03;95109.53;;;4.13;77.19
6833;BME280;3454;42.654;23.378;2023-02-18T05:28:29;95145.34;;;4.18;74.89
6833;BME280;3454;42.654;23.378;2023-02-18T05:30:54;95139.25;;;4.22;75.18
6833;BME280;3454;42.654;23.378;2023-02-18T05:33:27;95126.72;;;4.05;76.00
6833;BME280;3454;42.654;23.378;2023-02-18T05:35:53;95092.00;;;3.96;78.22
6833;BME280;3454;42.654;23.378;2023-02-18T05:38:18;95107.97;;;4.10;77.40
6833;BME280;3454;42.654;23.378;2023-02-18T05:40:43;95131.53;;;4.41;75.65
6833;BME280;3454;42.654;23.378;2023-02-18T05:43:09;95138.66;;;4.33;76.42
6833;BME280;3454;42.654;23.378;2023-02-18T05:45:34;95136.56;;;4.56;76.37
6833;BME280;3454;42.654;23.378;2023-02-18T05:48:00;95148.84;;;4.62;75.17
6833;BME280;3454;42.654;23.378;2023-02-18T05:50:25;95136.69;;;4.69;75.49
6833;BME280;3454;42.654;23.378;2023-02-18T05:52:51;95132.19;;;4.60;76.82
6833;BME280;3454;42.654;23.378;2023-02-18T05:55:17;95126.97;;;4.63;77.65
6833;BME280;3454;42.654;23.378;2023-02-18T05:57:42;95158.81;;;4.48;76.19
6833;BME280;3454;42.654;23.378;2023-02-18T06:00:08;95177.00;;;4.84;75.66
6833;BME280;3454;42.654;23.378;2023-02-18T06:02:35;95187.06;;;4.84;75.02
6833;BME280;3454;42.654;23.378;2023-02-18T06:05:00;95172.91;;;4.97;74.99
6833;BME280;3454;42.654;23.378;2023-02-18T06:07:26;95186.81;;;5.04;74.50
6833;BME280;3454;42.654;23.378;2023-02-18T06:09:51;95228.78;;;5.20;72.21
6833;BME280;3454;42.654;23.378;2023-02-18T06:12:18;95218.09;;;5.00;71.97
6833;BME280;3454;42.654;23.378;2023-02-18T06:14:44;95220.09;;;5.09;72.03
6833;BME280;3454;42.654;23.378;2023-02-18T06:17:13;95183.28;;;5.07;73.15
6833;BME280;3454;42.654;23.378;2023-02-18T06:19:39;95212.84;;;5.35;72.17
6833;BME280;3454;42.654;23.378;2023-02-18T06:22:05;95185.88;;;5.51;73.62
6833;BME280;3454;42.654;23.378;2023-02-18T06:24:32;95256.53;;;5.79;69.88
6833;BME280;3454;42.654;23.378;2023-02-18T06:26:58;95223.75;;;5.79;71.49
6833;BME280;3454;42.654;23.378;2023-02-18T06:29:24;95258.00;;;5.83;69.16
6833;BME280;3454;42.654;23.378;2023-02-18T06:31:50;95254.97;;;5.92;69.79
6833;BME280;3454;42.654;23.378;2023-02-18T06:34:19;95268.66;;;5.88;68.42
6833;BME280;3454;42.654;23.378;2023-02-18T06:36:45;95263.78;;;5.85;68.25
6833;BME280;3454;42.654;23.378;2023-02-18T06:39:10;95252.38;;;5.93;69.10
6833;BME280;3454;42.654;23.378;2023-02-18T06:41:36;95252.19;;;5.97;68.90
6833;BME280;3454;42.654;23.378;2023-02-18T06:44:01;95264.47;;;6.17;68.60
6833;BME280;3454;42.654;23.378;2023-02-18T06:46:27;95245.81;;;6.05;69.94
6833;BME280;3454;42.654;23.378;2023-02-18T06:48:52;95259.31;;;6.18;69.05
6833;BME280;3454;42.654;23.378;2023-02-18T06:51:17;95244.19;;;6.32;68.89
6833;BME280;3454;42.654;23.378;2023-02-18T06:53:44;95241.13;;;5.99;69.95
6833;BME280;3454;42.654;23.378;2023-02-18T06:56:10;95244.91;;;6.20;69.40
6833;BME280;3454;42.654;23.378;2023-02-18T06:58:36;95276.31;;;6.44;67.83
6833;BME280;3454;42.654;23.378;2023-02-18T07:01:02;95281.75;;;6.52;67.40
6833;BME280;3454;42.654;23.378;2023-02-18T07:03:27;95248.19;;;6.50;69.73
6833;BME280;3454;42.654;23.378;2023-02-18T07:05:53;95270.09;;;6.64;67.77
6833;BME280;3454;42.654;23.378;2023-02-18T07:08:18;95324.72;;;6.93;64.86
6833;BME280;3454;42.654;23.378;2023-02-18T07:10:43;95292.97;;;6.89;66.40
6833;BME280;3454;42.654;23.378;2023-02-18T07:13:09;95320.09;;;7.14;64.90
6833;BME280;3454;42.654;23.378;2023-02-18T07:15:35;95312.69;;;7.25;64.95
6833;BME280;3454;42.654;23.378;2023-02-18T07:18:00;95282.75;;;7.05;67.18
6833;BME280;3454;42.654;23.378;2023-02-18T07:20:26;95283.84;;;7.27;65.74
6833;BME280;3454;42.654;23.378;2023-02-18T07:22:52;95277.28;;;7.25;66.90
6833;BME280;3454;42.654;23.378;2023-02-18T07:25:18;95296.56;;;7.40;65.00
6833;BME280;3454;42.654;23.378;2023-02-18T07:27:44;95319.56;;;7.23;64.44
6833;BME280;3454;42.654;23.378;2023-02-18T07:30:10;95306.22;;;7.07;64.38
6833;BME280;3454;42.654;23.378;2023-02-18T07:32:35;95291.66;;;7.24;65.83
6833;BME280;3454;42.654;23.378;2023-02-18T07:35:02;95315.28;;;7.23;64.32
6833;BME280;3454;42.654;23.378;2023-02-18T07:37:28;95317.84;;;7.50;64.57
6833;BME280;3454;42.654;23.378;2023-02-18T07:39:53;95299.25;;;7.51;65.84
6833;BME280;3454;42.654;23.378;2023-02-18T07:42:19;95303.88;;;7.71;65.47
6833;BME280;3454;42.654;23.378;2023-02-18T07:44:44;95321.53;;;7.85;64.64
6833;BME280;3454;42.654;23.378;2023-02-18T07:47:13;95327.91;;;7.64;64.48
6833;BME280;3454;42.654;23.378;2023-02-18T07:49:39;95354.25;;;8.01;62.13
6833;BME280;3454;42.654;23.378;2023-02-18T07:52:05;95369.28;;;8.04;62.41
6833;BME280;3454;42.654;23.378;2023-02-18T07:54:30;95395.31;;;8.06;60.58
6833;BME280;3454;42.654;23.378;2023-02-18T07:56:56;95394.09;;;7.85;60.82
6833;BME280;3454;42.654;23.378;2023-02-18T07:59:21;95389.09;;;7.97;60.23
6833;BME280;3454;42.654;23.378;2023-02-18T08:01:46;95392.63;;;7.95;59.86
6833;BME280;3454;42.654;23.378;2023-02-18T08:04:12;95418.81;;;8.08;58.70
6833;BME280;3454;42.654;23.378;2023-02-18T08:06:42;95408.75;;;8.06;59.00
6833;BME280;3454;42.654;23.378;2023-02-18T08:09:08;95409.00;;;8.16;58.47
6833;BME280;3454;42.654;23.378;2023-02-18T08:11:34;95419.88;;;8.57;57.78
6833;BME280;3454;42.654;23.378;2023-02-18T08:14:00;95425.38;;;8.89;57.63
6833;BME280;3454;42.654;23.378;2023-02-18T08:16:25;95437.50;;;8.59;56.99
6833;BME280;3454;42.654;23.378;2023-02-18T08:18:51;95434.69;;;9.01;56.18
6833;BME280;3454;42.654;23.378;2023-02-18T08:21:18;95448.50;;;9.22;54.69
6833;BME280;3454;42.654;23.378;2023-02-18T08:23:45;95451.06;;;9.35;54.87
6833;BME280;3454;42.654;23.378;2023-02-18T08:26:11;95486.63;;;9.83;53.22
6833;BME280;3454;42.654;23.378;2023-02-18T08:28:36;95490.56;;;9.87;53.45
6833;BME280;3454;42.654;23.378;2023-02-18T08:31:02;95481.25;;;9.75;53.51
6833;BME280;3454;42.654;23.378;2023-02-18T08:33:27;95441.25;;;10.02;53.82
6833;BME280;3454;42.654;23.378;2023-02-18T08:35:54;95479.44;;;10.13;52.69
6833;BME280;3454;42.654;23.378;2023-02-18T08:38:21;95475.22;;;9.89;52.82
6833;BME280;3454;42.654;23.378;2023-02-18T08:40:47;95441.84;;;9.70;53.41
6833;BME280;3454;42.654;23.378;2023-02-18T08:43:14;95446.59;;;9.74;53.07
6833;BME280;3454;42.654;23.378;2023-02-18T08:45:40;95410.09;;;9.52;54.15
6833;BME280;3454;42.654;23.378;2023-02-18T08:48:07;95445.09;;;9.72;53.40
6833;BME280;3454;42.654;23.378;2023-02-18T08:50:34;95457.16;;;9.81;52.78
6833;BME280;3454;42.654;23.378;2023-02-18T08:52:59;95441.94;;;9.68;53.70
6833;BME280;3454;42.654;23.378;2023-02-18T08:55:29;95452.69;;;9.84;53.28
6833;BME280;3454;42.654;23.378;2023-02-18T08:57:54;95452.22;;;10.03;53.28
6833;BME280;3454;42.654;23.378;2023-02-18T09:00:20;95464.47;;;10.22;52.52
6833;BME280;3454;42.654;23.378;2023-02-18T09:02:46;95464.78;;;10.17;51.77
6833;BME280;3454;42.654;23.378;2023-02-18T09:05:13;95484.94;;;10.07;51.69
6833;BME280;3454;42.654;23.378;2023-02-18T09:07:39;95467.50;;;10.27;51.90
6833;BME280;3454;42.654;23.378;2023-02-18T09:10:05;95461.91;;;10.34;52.84
6833;BME280;3454;42.654;23.378;2023-02-18T09:12:31;95464.25;;;10.48;52.09
6833;BME280;3454;42.654;23.378;2023-02-18T09:14:56;95450.84;;;10.46;52.80
6833;BME280;3454;42.654;23.378;2023-02-18T09:17:22;95502.22;;;10.62;50.76
6833;BME280;3454;42.654;23.378;2023-02-18T09:19:47;95494.78;;;10.48;50.28
6833;BME280;3454;42.654;23.378;2023-02-18T09:22:13;95524.97;;;10.87;49.06
6833;BME280;3454;42.654;23.378;2023-02-18T09:24:39;95528.72;;;10.94;48.85
6833;BME280;3454;42.654;23.378;2023-02-18T09:27:06;95498.25;;;10.82;49.81
6833;BME280;3454;42.654;23.378;2023-02-18T09:29:32;95493.47;;;10.66;49.95
6833;BME280;3454;42.654;23.378;2023-02-18T09:32:01;95495.97;;;11.01;49.79
6833;BME280;3454;42.654;23.378;2023-02-18T09:34:27;95518.50;;;11.51;48.07
6833;BME280;3454;42.654;23.378;2023-02-18T09:36:52;95534.34;;;11.90;47.09
6833;BME280;3454;42.654;23.378;2023-02-18T09:39:19;95571.28;;;12.71;45.33
6833;BME280;3454;42.654;23.378;2023-02-18T09:41:51;95562.25;;;12.67;44.76
6833;BME280;3454;42.654;23.378;2023-02-18T09:50:18;95582.09;;;13.79;43.03
6833;BME280;3454;42.654;23.378;2023-02-18T09:52:45;95574.97;;;13.83;42.59
6833;BME280;3454;42.654;23.378;2023-02-18T09:55:23;95634.94;;;14.50;40.56
6833;BME280;3454;42.654;23.378;2023-02-18T09:57:52;95573.91;;;14.15;42.36
6833;BME280;3454;42.654;23.378;2023-02-18T10:00:22;95546.16;;;13.30;43.96
6833;BME280;3454;42.654;23.378;2023-02-18T10:03:03;95519.22;;;13.05;43.95
6833;BME280;3454;42.654;23.378;2023-02-18T10:05:30;95495.84;;;12.89;44.70
6833;BME280;3454;42.654;23.378;2023-02-18T10:08:06;95505.59;;;13.16;44.06
6833;BME280;3454;42.654;23.378;2023-02-18T10:10:43;95552.94;;;13.91;42.36
6833;BME280;3454;42.654;23.378;2023-02-18T10:13:15;95562.19;;;14.13;41.86
6833;BME280;3454;42.654;23.378;2023-02-18T10:15:43;95575.56;;;14.75;41.28
6833;BME280;3454;42.654;23.378;2023-02-18T10:18:39;95601.66;;;15.57;39.62
6833;BME280;3454;42.654;23.378;2023-02-18T10:21:06;95633.34;;;16.31;38.25
6833;BME280;3454;42.654;23.378;2023-02-18T10:23:36;95651.19;;;16.69;36.63
6833;BME280;3454;42.654;23.378;2023-02-18T10:26:06;95657.03;;;16.89;36.01
6833;BME280;3454;42.654;23.378;2023-02-18T10:28:33;95622.69;;;16.90;35.87
6833;BME280;3454;42.654;23.378;2023-02-18T10:31:09;95623.91;;;17.13;35.80
6833;BME280;3454;42.654;23.378;2023-02-18T10:33:42;95609.09;;;16.79;36.14
6833;BME280;3454;42.654;23.378;2023-02-18T10:36:33;95581.38;;;16.46;36.20
6833;BME280;3454;42.654;23.378;2023-02-18T10:47:37;95594.63;;;18.10;34.52
6833;BME280;3454;42.654;23.378;2023-02-18T10:52:55;95588.91;;;18.24;33.51
6833;BME280;3454;42.654;23.378;2023-02-18T10:55:38;95592.34;;;18.07;32.93
6833;BME280;3454;42.654;23.378;2023-02-18T11:00:47;95599.53;;;18.55;32.68
6833;BME280;3454;42.654;23.378;2023-02-18T11:03:37;95598.53;;;18.89;32.14
6833;BME280;3454;42.654;23.378;2023-02-18T11:06:05;95579.09;;;18.53;32.66
6833;BME280;3454;42.654;23.378;2023-02-18T11:08:42;95530.66;;;17.63;32.93
6833;BME280;3454;42.654;23.378;2023-02-18T11:11:15;95524.59;;;17.29;33.54
6833;BME280;3454;42.654;23.378;2023-02-18T11:13:42;95502.00;;;17.33;33.98
6833;BME280;3454;42.654;23.378;2023-02-18T11:16:08;95519.75;;;18.29;33.32
6833;BME280;3454;42.654;23.378;2023-02-18T11:18:39;95521.34;;;18.80;33.25
6833;BME280;3454;42.654;23.378;2023-02-18T11:21:36;95480.94;;;17.81;33.83
6833;BME280;3454;42.654;23.378;2023-02-18T11:24:08;95497.03;;;17.83;33.42
6833;BME280;3454;42.654;23.378;2023-02-18T11:26:36;95517.28;;;18.19;32.26
6833;BME280;3454;42.654;23.378;2023-02-18T11:29:13;95507.03;;;18.27;32.20
6833;BME280;3454;42.654;23.378;2023-02-18T11:31:42;95499.75;;;18.73;32.50
6833;BME280;3454;42.654;23.378;2023-02-18T11:34:28;95505.44;;;18.34;32.18
6833;BME280;3454;42.654;23.378;2023-02-18T11:36:54;95511.06;;;18.80;31.97
6833;BME280;3454;42.654;23.378;2023-02-18T11:39:32;95512.13;;;18.61;31.37
6833;BME280;3454;42.654;23.378;2023-02-18T11:41:59;95498.28;;;17.79;31.33
6833;BME280;3454;42.654;23.378;2023-02-18T11:44:36;95501.84;;;18.69;31.50
6833;BME280;3454;42.654;23.378;2023-02-18T11:49:36;95511.59;;;19.40;30.42
6833;BME280;3454;42.654;23.378;2023-02-18T11:54:40;95563.19;;;20.35;28.65
6833;BME280;3454;42.654;23.378;2023-02-18T11:57:10;95550.28;;;20.35;28.58
6833;BME280;3454;42.654;23.378;2023-02-18T11:59:38;95531.63;;;20.00;29.01
6833;BME280;3454;42.654;23.378;2023-02-18T12:05:01;95512.53;;;19.63;28.91
6833;BME280;3454;42.654;23.378;2023-02-18T12:07:29;95490.13;;;19.71;28.96
6833;BME280;3454;42.654;23.378;2023-02-18T12:10:03;95485.88;;;19.86;28.93
6833;BME280;3454;42.654;23.378;2023-02-18T12:12:53;95473.69;;;20.19;29.19
6833;BME280;3454;42.654;23.378;2023-02-18T12:15:28;95474.59;;;20.57;28.82
6833;BME280;3454;42.654;23.378;2023-02-18T12:21:52;95457.75;;;20.38;29.22
6833;BME280;3454;42.654;23.378;2023-02-18T12:24:11;95445.41;;;20.18;29.45
6833;BME280;3454;42.654;23.378;2023-02-18T12:27:02;95405.03;;;19.15;30.72
6833;BME280;3454;42.654;23.378;2023-02-18T12:42:54;95296.13;;;17.52;33.42
6833;BME280;3454;42.654;23.378;2023-02-18T12:53:52;95294.00;;;18.21;32.54
6833;BME280;3454;42.654;23.378;2023-02-18T12:56:42;95306.41;;;18.74;32.73
6833;BME280;3454;42.654;23.378;2023-02-18T13:04:28;95349.34;;;19.99;31.27
6833;BME280;3454;42.654;23.378;2023-02-18T13:07:27;95357.41;;;19.96;30.98
6833;BME280;3454;42.654;23.378;2023-02-18T13:18:19;95282.28;;;19.91;33.30
6833;BME280;3454;42.654;23.378;2023-02-18T13:21:13;95307.84;;;18.69;32.50
6833;BME280;3454;42.654;23.378;2023-02-18T13:24:01;95299.63;;;18.65;31.91
6833;BME280;3454;42.654;23.378;2023-02-18T13:26:30;95299.69;;;19.12;32.79
6833;BME280;3454;42.654;23.378;2023-02-18T13:39:51;95298.59;;;17.36;32.61
6833;BME280;3454;42.654;23.378;2023-02-18T13:47:43;95256.94;;;17.74;33.69
6833;BME280;3454;42.654;23.378;2023-02-18T13:55:41;95218.78;;;17.45;35.44
6833;BME280;3454;42.654;23.378;2023-02-18T13:58:39;95147.88;;;17.03;38.27
6833;BME280;3454;42.654;23.378;2023-02-18T14:06:22;95190.97;;;17.33;36.46
6833;BME280;3454;42.654;23.378;2023-02-18T14:11:56;95139.88;;;17.22;38.52
6833;BME280;3454;42.654;23.378;2023-02-18T14:17:13;95100.34;;;16.99;40.49
6833;BME280;3454;42.654;23.378;2023-02-18T14:19:39;95155.25;;;17.14;38.12
6833;BME280;3454;42.654;23.378;2023-02-18T14:27:39;95115.84;;;15.88;40.59
6833;BME280;3454;42.654;23.378;2023-02-18T14:32:38;95051.50;;;15.48;43.68
6833;BME280;3454;42.654;23.378;2023-02-18T14:51:34;95074.00;;;16.13;42.89
6833;BME280;3454;42.654;23.378;2023-02-18T14:54:12;95026.16;;;16.38;45.05
6833;BME280;3454;42.654;23.378;2023-02-18T14:57:05;95110.91;;;16.20;40.82
6833;BME280;3454;42.654;23.378;2023-02-18T14:59:40;95104.09;;;15.77;40.83
6833;BME280;3454;42.654;23.378;2023-02-18T15:02:21;95099.53;;;15.10;40.87
6833;BME280;3454;42.654;23.378;2023-02-18T15:04:48;95079.59;;;14.87;41.24
6833;BME280;3454;42.654;23.378;2023-02-18T15:07:18;95055.81;;;14.59;41.56
6833;BME280;3454;42.654;23.378;2023-02-18T15:09:46;95050.19;;;14.73;42.59
6833;BME280;3454;42.654;23.378;2023-02-18T15:12:16;95041.19;;;14.69;42.67
6833;BME280;3454;42.654;23.378;2023-02-18T15:14:44;95052.25;;;14.43;42.78
6833;BME280;3454;42.654;23.378;2023-02-18T15:17:21;95036.72;;;14.36;43.59
6833;BME280;3454;42.654;23.378;2023-02-18T15:19:54;95046.41;;;14.23;43.23
6833;BME280;3454;42.654;23.378;2023-02-18T15:22:23;95038.41;;;14.08;43.11
6833;BME280;3454;42.654;23.378;2023-02-18T15:24:52;95003.56;;;13.80;44.51
6833;BME280;3454;42.654;23.378;2023-02-18T15:27:32;95026.94;;;13.85;43.99
6833;BME280;3454;42.654;23.378;2023-02-18T15:30:24;95022.41;;;13.79;44.30
6833;BME280;3454;42.654;23.378;2023-02-18T15:32:51;95003.59;;;13.71;44.61
6833;BME280;3454;42.654;23.378;2023-02-18T15:35:20;95003.88;;;13.68;44.52
6833;BME280;3454;42.654;23.378;2023-02-18T15:37:52;94983.31;;;13.69;45.08
6833;BME280;3454;42.654;23.378;2023-02-18T15:40:19;94981.16;;;13.65;45.61
6833;BME280;3454;42.654;23.378;2023-02-18T15:42:49;94978.59;;;13.65;45.21
6833;BME280;3454;42.654;23.378;2023-02-18T15:45:21;94978.28;;;13.40;45.42
6833;BME280;3454;42.654;23.378;2023-02-18T15:47:50;94954.34;;;13.51;46.78
6833;BME280;3454;42.654;23.378;2023-02-18T15:50:29;94961.66;;;13.64;46.37
6833;BME280;3454;42.654;23.378;2023-02-18T15:53:03;94971.38;;;13.60;45.70
6833;BME280;3454;42.654;23.378;2023-02-18T15:55:31;94936.31;;;13.53;47.28
6833;BME280;3454;42.654;23.378;2023-02-18T15:58:02;94952.22;;;13.37;46.10
6833;BME280;3454;42.654;23.378;2023-02-18T16:00:32;94935.59;;;13.23;46.70
6833;BME280;3454;42.654;23.378;2023-02-18T16:03:11;94945.81;;;13.23;46.49
6833;BME280;3454;42.654;23.378;2023-02-18T16:05:38;94931.75;;;13.10;47.06
6833;BME280;3454;42.654;23.378;2023-02-18T16:08:24;94930.09;;;12.99;47.51
6833;BME280;3454;42.654;23.378;2023-02-18T16:10:55;94923.41;;;12.98;47.98
6833;BME280;3454;42.654;23.378;2023-02-18T16:13:31;94938.31;;;12.93;47.97
6833;BME280;3454;42.654;23.378;2023-02-18T16:15:58;94932.72;;;12.80;48.23
6833;BME280;3454;42.654;23.378;2023-02-18T16:20:59;94925.47;;;12.76;48.33